Time;durP1;ratioP1;P1;durP2;ratioP2;P2;SDS_P1;SDS_P2;PMS_P1;PMS_P2;Temp;Humidity;BMP_temperature;BMP_pressure;BME280_temperature;BME280_humidity;BME280_pressure;Samples;Min_cycle;Max_cycle;Signal;HPM_P1;HPM_P2
2023/09/30 00:04:57;;;;;;;3.05;1.90;;;;;;;15.10;100.00;99332.75;15279449;19;20340;-58
2023/09/30 00:10:22;;;;;;;3.67;1.90;;;;;;;15.01;100.00;99336.47;15281047;19;20007;-58
2023/09/30 00:15:50;;;;;;;4.03;2.00;;;;;;;14.99;100.00;99346.66;15286484;19;20022;-59
2023/09/30 00:21:15;;;;;;;3.30;1.80;;;;;;;14.93;100.00;99331.03;15285209;19;20062;-58
2023/09/30 00:26:39;;;;;;;2.70;1.50;;;;;;;14.86;100.00;99313.75;15284987;19;20010;-57
2023/09/30 00:32:08;;;;;;;1.67;1.30;;;;;;;14.77;100.00;99302.84;15284070;19;20010;-59
2023/09/30 00:37:32;;;;;;;3.70;1.45;;;;;;;14.71;100.00;99294.53;15278458;19;20038;-58
2023/09/30 00:42:58;;;;;;;3.85;1.60;;;;;;;14.66;100.00;99296.88;15277263;19;20018;-58
2023/09/30 00:48:26;;;;;;;2.42;1.50;;;;;;;14.59;100.00;99307.53;15275614;19;20014;-58
2023/09/30 00:53:53;;;;;;;2.58;1.17;;;;;;;14.56;100.00;99319.56;15282671;19;20018;-56
2023/09/30 00:59:17;;;;;;;2.30;1.10;;;;;;;14.53;100.00;99308.19;15282666;19;20018;-58
2023/09/30 01:04:46;;;;;;;1.98;1.20;;;;;;;14.51;100.00;99304.81;15286745;19;20025;-58
2023/09/30 01:10:12;;;;;;;3.33;1.30;;;;;;;14.52;100.00;99285.66;15277308;19;20475;-59
2023/09/30 01:15:38;;;;;;;2.10;1.30;;;;;;;14.51;100.00;99272.28;15276212;19;20069;-59
2023/09/30 01:21:07;;;;;;;2.35;1.20;;;;;;;14.54;100.00;99288.19;15281172;19;20015;-57
2023/09/30 01:26:31;;;;;;;3.10;1.10;;;;;;;14.48;100.00;99287.84;15280523;19;20082;-56
2023/09/30 01:31:56;;;;;;;2.15;1.10;;;;;;;14.47;100.00;99299.72;15280268;19;20022;-56
2023/09/30 01:37:30;;;;;;;2.45;1.02;;;;;;;14.46;100.00;99287.16;15282767;19;20018;-54
2023/09/30 01:42:59;;;;;;;2.35;1.20;;;;;;;14.36;100.00;99256.63;15269916;19;20041;-57
2023/09/30 01:48:23;;;;;;;3.72;1.30;;;;;;;14.35;100.00;99225.13;15272023;19;20367;-53
2023/09/30 01:53:48;;;;;;;4.20;1.30;;;;;;;14.27;100.00;99223.22;15278410;19;20367;-55
2023/09/30 01:59:16;;;;;;;2.72;1.40;;;;;;;14.24;100.00;99199.16;15279759;19;20015;-52
2023/09/30 02:04:41;;;;;;;2.80;1.25;;;;;;;14.17;100.00;99217.94;15279037;19;20602;-52
2023/09/30 02:10:07;;;;;;;3.40;1.50;;;;;;;14.07;100.00;99198.28;15278362;19;20018;-56
2023/09/30 02:15:35;;;;;;;2.70;1.38;;;;;;;13.96;100.00;99204.00;15271284;19;20010;-53
2023/09/30 02:20:53;;;;;;;4.05;1.50;;;;;;;13.91;100.00;99192.81;15272939;19;20018;-52
2023/09/30 02:26:17;;;;;;;3.47;1.70;;;;;;;13.79;100.00;99179.56;15274063;19;20021;-53
2023/09/30 02:31:45;;;;;;;2.70;1.70;;;;;;;13.66;100.00;99184.59;15273008;19;20018;-56
2023/09/30 02:37:18;;;;;;;2.50;1.38;;;;;;;13.56;100.00;99185.56;15272085;19;20476;-52
2023/09/30 02:42:44;;;;;;;3.75;1.83;;;;;;;13.39;100.00;99186.44;15274795;19;20029;-53
2023/09/30 02:48:11;;;;;;;4.85;1.77;;;;;;;13.28;100.00;99198.41;15267884;19;20023;-55
2023/09/30 02:53:37;;;;;;;3.30;1.70;;;;;;;13.15;100.00;99200.69;15269063;19;20344;-54
2023/09/30 02:59:03;;;;;;;2.88;1.60;;;;;;;13.02;100.00;99192.97;15273440;19;20015;-56
2023/09/30 03:04:32;;;;;;;3.03;1.67;;;;;;;12.88;100.00;99222.28;15274101;19;20038;-55
2023/09/30 03:09:58;;;;;;;3.72;1.60;;;;;;;12.83;100.00;99212.94;15272349;19;20026;-52
2023/09/30 03:15:23;;;;;;;2.08;1.45;;;;;;;12.75;100.00;99219.16;15277390;19;20025;-51
2023/09/30 03:20:56;;;;;;;3.20;1.55;;;;;;;12.69;100.00;99231.44;15275050;19;20064;-52
2023/09/30 03:26:21;;;;;;;4.30;1.60;;;;;;;12.59;100.00;99263.94;15281157;19;20018;-53
2023/09/30 03:31:45;;;;;;;3.78;1.90;;;;;;;12.55;100.00;99288.75;15284701;19;20117;-53
2023/09/30 03:37:20;;;;;;;5.43;1.75;;;;;;;12.49;100.00;99292.91;15283715;19;20014;-53
2023/09/30 03:42:45;;;;;;;4.38;1.80;;;;;;;12.41;100.00;99322.53;15285106;19;20025;-53
2023/09/30 03:48:11;;;;;;;5.63;1.88;;;;;;;12.36;100.00;99341.88;15287185;19;20029;-51
2023/09/30 03:53:39;;;;;;;3.45;1.77;;;;;;;12.29;100.00;99343.50;15277053;19;20014;-54
2023/09/30 03:59:04;;;;;;;3.95;1.60;;;;;;;12.25;100.00;99348.34;15284049;19;20380;-53
2023/09/30 04:04:28;;;;;;;4.03;1.67;;;;;;;12.17;100.00;99342.84;15283899;19;20041;-52
2023/09/30 04:09:55;;;;;;;3.85;1.80;;;;;;;12.12;100.00;99337.88;15283477;19;20038;-53
2023/09/30 04:15:22;;;;;;;3.40;1.58;;;;;;;12.11;100.00;99346.13;15287141;19;20018;-54
2023/09/30 04:20:53;;;;;;;5.32;1.90;;;;;;;12.06;100.00;99356.53;15285309;19;20034;-51
2023/09/30 04:26:21;;;;;;;3.00;1.67;;;;;;;12.11;100.00;99354.25;15285438;19;20010;-53
2023/09/30 04:31:46;;;;;;;4.68;2.00;;;;;;;12.08;100.00;99349.13;15279999;19;20291;-51
2023/09/30 04:37:18;;;;;;;4.43;1.63;;;;;;;12.00;100.00;99355.25;15278979;19;20037;-52
2023/09/30 04:42:46;;;;;;;3.92;1.55;;;;;;;11.93;100.00;99360.41;15283268;19;20022;-55
2023/09/30 04:48:12;;;;;;;4.13;1.70;;;;;;;11.90;100.00;99365.22;15281349;19;20491;-53
2023/09/30 04:53:37;;;;;;;5.97;1.73;;;;;;;11.83;100.00;99368.50;15274574;19;20013;-50
2023/09/30 04:59:04;;;;;;;4.13;1.80;;;;;;;11.82;100.00;99371.34;15281351;19;20024;-53
2023/09/30 05:04:29;;;;;;;4.40;1.70;;;;;;;11.79;100.00;99395.97;15279767;19;20034;-51
2023/09/30 05:09:54;;;;;;;5.53;1.80;;;;;;;11.77;100.00;99400.66;15279816;19;20053;-51
2023/09/30 05:15:25;;;;;;;5.90;1.70;;;;;;;11.71;100.00;99392.13;15276127;19;20054;-53
2023/09/30 05:20:50;;;;;;;3.53;1.67;;;;;;;11.71;100.00;99415.56;15280998;19;20018;-51
2023/09/30 05:26:16;;;;;;;3.88;1.75;;;;;;;11.65;100.00;99424.22;15271051;19;20011;-53
2023/09/30 05:31:44;;;;;;;4.60;1.85;;;;;;;11.53;100.00;99434.34;15274754;19;20044;-57
2023/09/30 05:37:16;;;;;;;4.03;1.63;;;;;;;11.48;100.00;99433.91;15273275;19;20014;-56
2023/09/30 05:42:42;;;;;;;5.03;2.07;;;;;;;11.45;100.00;99445.84;15270776;19;20030;-55
2023/09/30 05:48:11;;;;;;;4.93;1.80;;;;;;;11.46;100.00;99473.69;15272500;19;21164;-58
2023/09/30 05:53:36;;;;;;;7.20;1.90;;;;;;;11.45;100.00;99466.59;15264124;19;20021;-56
2023/09/30 05:59:01;;;;;;;4.32;1.98;;;;;;;11.47;100.00;99483.47;15261792;19;20459;-55
2023/09/30 06:04:33;;;;;;;6.32;1.90;;;;;;;11.47;100.00;99475.38;15266268;19;20019;-56
2023/09/30 06:10:07;;;;;;;4.70;1.87;;;;;;;11.54;100.00;99479.22;15293804;19;20015;-57
2023/09/30 06:15:32;;;;;;;2.92;1.60;;;;;;;11.61;100.00;99501.94;15279072;19;20029;-53
2023/09/30 06:21:00;;;;;;;4.95;1.92;;;;;;;11.67;100.00;99504.09;15277721;19;20039;-54
2023/09/30 06:26:28;;;;;;;5.00;1.80;;;;;;;11.73;100.00;99508.06;15278420;19;20039;-55
2023/09/30 06:31:53;;;;;;;5.25;1.90;;;;;;;11.78;100.00;99504.94;15269829;19;20028;-57
2023/09/30 06:37:29;;;;;;;4.88;2.03;;;;;;;11.83;100.00;99492.72;15270671;19;20385;-58
2023/09/30 06:42:54;;;;;;;5.38;2.22;;;;;;;11.89;100.00;99494.00;15272342;19;20370;-57
2023/09/30 06:48:20;;;;;;;6.13;1.90;;;;;;;11.93;100.00;99491.84;15275242;19;20038;-58
2023/09/30 06:53:48;;;;;;;6.57;1.83;;;;;;;11.97;100.00;99482.47;15282053;19;20082;-57
2023/09/30 06:59:15;;;;;;;8.70;2.10;;;;;;;12.01;100.00;99473.97;15290355;19;20785;-58
2023/09/30 07:04:41;;;;;;;5.05;1.88;;;;;;;12.07;100.00;99477.06;15284843;19;20371;-59
2023/09/30 07:10:09;;;;;;;4.78;2.00;;;;;;;12.17;100.00;99461.72;15280455;19;20074;-55
2023/09/30 07:15:33;;;;;;;5.50;1.80;;;;;;;12.24;100.00;99459.25;15288919;19;20015;-58
2023/09/30 07:20:58;;;;;;;5.72;2.10;;;;;;;12.33;100.00;99475.47;15289870;19;20475;-53
2023/09/30 07:26:29;;;;;;;5.60;2.28;;;;;;;12.39;100.00;99465.06;15289904;19;20030;-53
2023/09/30 07:31:54;;;;;;;6.45;2.20;;;;;;;12.46;100.00;99444.56;15287189;19;20252;-57
2023/09/30 07:37:26;;;;;;;5.47;2.20;;;;;;;12.56;100.00;99455.34;15279984;19;20619;-56
2023/09/30 07:42:53;;;;;;;7.20;2.15;;;;;;;12.62;100.00;99444.78;15282267;19;20022;-56
2023/09/30 07:48:18;;;;;;;6.13;2.00;;;;;;;12.67;100.00;99452.44;15265463;19;20030;-58
2023/09/30 07:53:42;;;;;;;5.65;2.28;;;;;;;12.68;100.00;99453.28;15283497;19;20018;-57
2023/09/30 07:59:10;;;;;;;6.50;2.00;;;;;;;12.67;100.00;99465.09;14778333;19;10001244;-57
2023/09/30 08:04:41;;;;;;;5.30;2.17;;;;;;;12.71;100.00;99470.03;15284923;19;20024;-56
2023/09/30 08:10:12;;;;;;;5.82;2.20;;;;;;;12.79;100.00;99491.81;15276836;19;20021;-56
2023/09/30 08:15:39;;;;;;;8.55;2.60;;;;;;;12.92;100.00;99488.75;15283698;19;20021;-55
2023/09/30 08:21:04;;;;;;;7.00;2.35;;;;;;;12.99;100.00;99486.28;15285683;19;20071;-57
2023/09/30 08:26:29;;;;;;;7.68;2.50;;;;;;;13.06;100.00;99486.53;15286176;19;20634;-58
2023/09/30 08:31:57;;;;;;;5.68;2.25;;;;;;;13.03;100.00;99479.59;15282700;19;20019;-55
2023/09/30 08:37:31;;;;;;;7.47;2.72;;;;;;;13.17;100.00;99477.38;15281083;19;20092;-56
2023/09/30 08:42:55;;;;;;;5.25;2.03;;;;;;;13.29;100.00;99478.84;15277258;19;20017;-57
2023/09/30 08:48:23;;;;;;;7.78;2.30;;;;;;;13.44;100.00;99465.69;15279641;19;20021;-58
2023/09/30 08:53:49;;;;;;;6.97;2.55;;;;;;;13.56;100.00;99456.31;15280997;19;20366;-59
2023/09/30 08:59:14;;;;;;;6.88;2.40;;;;;;;13.66;100.00;99447.25;15286522;19;20021;-58
2023/09/30 09:04:43;;;;;;;6.35;2.40;;;;;;;13.74;100.00;99466.28;15281255;19;20032;-58
2023/09/30 09:10:16;;;;;;;5.68;2.40;;;;;;;13.82;100.00;99452.78;15277938;19;20356;-58
2023/09/30 09:15:40;;;;;;;6.00;2.42;;;;;;;14.00;100.00;99451.94;15276586;19;20045;-59
2023/09/30 09:21:17;;;;;;;8.20;2.75;;;;;;;13.96;100.00;99427.00;15278005;19;20022;-59
2023/09/30 09:26:43;;;;;;;5.85;2.17;;;;;;;14.02;100.00;99420.94;15284186;19;20032;-56
2023/09/30 09:32:19;;;;;;;4.93;2.08;;;;;;;14.09;100.00;99426.56;15278480;19;20667;-59
2023/09/30 09:37:53;;;;;;;5.63;2.50;;;;;;;14.27;100.00;99431.09;15279440;19;20033;-58
2023/09/30 09:43:19;;;;;;;5.13;2.17;;;;;;;14.39;100.00;99410.84;15277782;19;20022;-58
2023/09/30 09:48:45;;;;;;;5.60;2.28;;;;;;;14.54;100.00;99413.78;15275602;19;20022;-56
2023/09/30 09:54:14;;;;;;;6.63;2.33;;;;;;;14.66;100.00;99417.03;15276216;19;20086;-58
2023/09/30 09:59:41;;;;;;;5.30;1.90;;;;;;;14.83;100.00;99417.16;15282148;19;20014;-56
2023/09/30 10:05:07;;;;;;;4.57;2.05;;;;;;;14.93;100.00;99415.97;15283470;19;20010;-58
2023/09/30 10:10:35;;;;;;;4.30;2.00;;;;;;;15.04;100.00;99403.16;15280432;19;20023;-53
2023/09/30 10:15:59;;;;;;;5.38;2.40;;;;;;;15.09;100.00;99407.06;15281135;19;20017;-57
2023/09/30 10:21:24;;;;;;;6.45;2.20;;;;;;;15.25;100.00;99399.94;15173409;19;2005290;-56
2023/09/30 10:27:28;;;;;;;5.30;2.05;;;;;;;15.24;100.00;99392.81;15277208;19;20029;-56
2023/09/30 10:33:17;;;;;;;4.93;2.00;;;;;;;15.31;100.00;99388.44;15291445;19;20018;-58
2023/09/30 10:38:43;;;;;;;4.35;1.90;;;;;;;15.45;100.00;99388.78;15291342;19;20078;-57
2023/09/30 10:44:43;;;;;;;3.38;1.70;;;;;;;15.53;100.00;99372.47;15290809;19;20014;-58
2023/09/30 10:50:52;;;;;;;3.50;1.70;;;;;;;15.68;100.00;99378.06;15286562;19;20018;-56
2023/09/30 10:56:17;;;;;;;3.22;1.70;;;;;;;15.85;100.00;99385.22;15291208;19;20626;-57
2023/09/30 11:01:44;;;;;;;3.70;1.35;;;;;;;15.91;100.00;99372.81;15291042;19;20610;-56
2023/09/30 11:07:11;;;;;;;4.85;1.80;;;;;;;16.02;100.00;99367.03;15294611;19;20014;-55
2023/09/30 11:12:35;;;;;;;4.57;1.58;;;;;;;16.10;100.00;99360.72;15288613;19;20018;-56
2023/09/30 11:18:22;;;;;;;5.03;1.83;;;;;;;16.19;100.00;99358.81;15292681;19;20014;-55
2023/09/30 11:23:47;;;;;;;3.22;1.50;;;;;;;16.32;100.00;99350.94;15285372;19;20078;-58
2023/09/30 11:29:16;;;;;;;3.83;1.58;;;;;;;16.48;100.00;99346.47;15286589;19;20025;-57
2023/09/30 11:34:47;;;;;;;3.05;1.50;;;;;;;16.57;100.00;99342.69;15290720;19;20018;-56
2023/09/30 11:40:24;;;;;;;2.92;1.45;;;;;;;16.64;100.00;99346.38;15291377;19;20018;-54
2023/09/30 11:45:49;;;;;;;4.22;1.40;;;;;;;16.68;100.00;99343.31;15293832;19;20014;-57
2023/09/30 11:51:17;;;;;;;3.58;1.67;;;;;;;16.75;100.00;99342.41;15287764;19;20018;-55
2023/09/30 11:56:41;;;;;;;3.10;1.35;;;;;;;16.91;100.00;99344.19;15285188;19;20018;-57
2023/09/30 12:02:08;;;;;;;4.55;1.60;;;;;;;16.99;100.00;99318.00;15284233;19;20020;-57
2023/09/30 12:07:29;;;;;;;1.95;1.17;;;;;;;17.20;100.00;99310.00;15284926;19;20010;-56
2023/09/30 12:12:55;;;;;;;3.70;1.50;;;;;;;17.37;100.00;99323.47;15283492;19;20022;-57
2023/09/30 12:18:23;;;;;;;2.63;1.15;;;;;;;17.48;100.00;99323.03;15283973;19;20015;-58
2023/09/30 12:23:51;;;;;;;3.55;1.40;;;;;;;17.52;100.00;99316.19;15289876;19;20045;-58
2023/09/30 12:29:18;;;;;;;5.35;1.35;;;;;;;17.60;100.00;99300.78;15281361;19;20791;-58
2023/09/30 12:34:43;;;;;;;3.20;1.42;;;;;;;17.63;100.00;99300.41;15280255;19;20022;-58
2023/09/30 12:40:11;;;;;;;2.22;1.20;;;;;;;17.64;100.00;99293.94;15285196;19;20018;-55
2023/09/30 12:45:38;;;;;;;1.80;1.17;;;;;;;17.79;100.00;99289.34;15286762;19;20039;-56
2023/09/30 12:51:04;;;;;;;3.58;1.27;;;;;;;17.89;100.00;99285.50;15281820;19;20022;-58
2023/09/30 12:56:33;;;;;;;2.53;1.30;;;;;;;18.00;100.00;99285.88;15286965;19;20022;-58
2023/09/30 13:01:57;;;;;;;4.38;1.30;;;;;;;17.97;95.30;99282.69;15276776;19;20019;-57
2023/09/30 13:07:24;;;;;;;2.88;1.30;;;;;;;18.00;98.63;99293.25;15282285;19;20014;-58
2023/09/30 13:12:53;;;;;;;1.92;1.15;;;;;;;17.98;100.00;99279.81;15283790;19;20025;-57
2023/09/30 13:18:17;;;;;;;1.60;1.17;;;;;;;17.99;90.24;99297.00;15281578;19;20022;-56
2023/09/30 13:23:43;;;;;;;1.90;1.17;;;;;;;18.18;100.00;99284.69;15281734;19;20497;-57
2023/09/30 13:29:12;;;;;;;3.13;1.30;;;;;;;18.15;100.00;99275.00;15282590;19;20014;-56
2023/09/30 13:34:44;;;;;;;3.22;1.48;;;;;;;18.47;100.00;99283.78;15279563;19;20018;-58
2023/09/30 13:40:13;;;;;;;3.63;1.20;;;;;;;18.61;89.17;99282.03;15277296;19;20078;-56
2023/09/30 13:45:40;;;;;;;3.63;1.30;;;;;;;18.66;97.33;99284.19;15284299;19;20022;-56
2023/09/30 13:51:08;;;;;;;2.90;1.50;;;;;;;18.89;87.97;99267.66;15280603;19;20045;-54
2023/09/30 13:56:33;;;;;;;2.38;1.10;;;;;;;18.89;79.86;99261.31;15283613;19;20025;-58
2023/09/30 14:02:00;;;;;;;2.70;1.20;;;;;;;19.02;82.33;99261.50;15277939;19;20426;-58
2023/09/30 14:07:26;;;;;;;3.20;1.25;;;;;;;19.18;93.95;99259.53;15282403;19;20036;-57
2023/09/30 14:12:50;;;;;;;2.22;1.13;;;;;;;19.14;71.53;99256.38;15276141;19;20467;-58
2023/09/30 14:18:18;;;;;;;3.00;1.13;;;;;;;19.45;74.98;99249.66;15281598;19;21418;-56
2023/09/30 14:38:15;;;;;;;2.70;1.30;;;;;;;20.04;68.38;99241.22;15328248;19;20366;-53
2023/09/30 14:43:40;;;;;;;2.17;1.30;;;;;;;20.41;75.31;99247.25;15343352;19;20026;-57
2023/09/30 14:48:58;;;;;;;4.50;1.50;;;;;;;20.22;74.23;99240.69;15348466;19;20022;-55
2023/09/30 14:54:25;;;;;;;4.20;1.45;;;;;;;20.22;78.18;99233.31;15343987;19;20101;-56
2023/09/30 14:59:50;;;;;;;6.38;1.50;;;;;;;20.29;83.09;99241.53;15349190;19;20025;-53
2023/09/30 15:05:15;;;;;;;4.30;1.50;;;;;;;20.28;82.80;99243.44;15342916;19;20026;-55
2023/09/30 15:10:43;;;;;;;3.20;1.30;;;;;;;20.27;67.50;99240.91;15345744;19;20510;-56
2023/09/30 15:16:07;;;;;;;3.10;1.23;;;;;;;20.41;78.83;99233.56;15341116;19;20029;-56
2023/09/30 15:21:32;;;;;;;5.45;1.50;;;;;;;20.23;69.67;99240.47;15335104;19;20569;-57
2023/09/30 15:27:01;;;;;;;8.27;1.70;;;;;;;20.25;74.98;99224.69;15338407;19;20036;-57
2023/09/30 15:32:27;;;;;;;3.95;1.30;;;;;;;20.20;71.14;99208.03;15344200;19;20014;-56
2023/09/30 15:37:59;;;;;;;5.57;1.30;;;;;;;20.28;72.09;99218.81;15295234;19;20022;-55
2023/09/30 15:43:27;;;;;;;2.05;1.05;;;;;;;20.01;67.72;99221.44;15281191;19;20113;-54
2023/09/30 15:48:51;;;;;;;2.55;1.20;;;;;;;20.08;85.18;99234.28;15279793;19;20010;-55
2023/09/30 15:54:17;;;;;;;2.78;1.30;;;;;;;20.19;76.08;99217.28;15277867;19;20053;-57
2023/09/30 15:59:44;;;;;;;3.65;1.40;;;;;;;20.15;77.07;99232.44;15282189;19;20037;-58
2023/09/30 16:05:10;;;;;;;4.90;1.48;;;;;;;20.11;83.86;99222.94;15281216;19;20018;-57
2023/09/30 16:10:35;;;;;;;3.25;1.30;;;;;;;19.88;98.51;99226.84;15281993;19;20022;-57
2023/09/30 16:16:03;;;;;;;3.42;1.23;;;;;;;19.66;93.74;99229.63;15277129;19;20114;-55
2023/09/30 16:21:28;;;;;;;3.17;1.35;;;;;;;19.29;96.22;99223.50;15276006;19;20027;-56
2023/09/30 16:26:53;;;;;;;3.35;1.33;;;;;;;19.21;96.32;99237.31;15277126;19;20078;-56
2023/09/30 16:32:20;;;;;;;1.83;1.02;;;;;;;18.90;95.24;99230.25;15282420;19;20208;-58
2023/09/30 16:37:45;;;;;;;2.95;1.23;;;;;;;18.75;100.00;99216.69;15276294;19;20032;-54
2023/09/30 16:43:09;;;;;;;2.25;1.10;;;;;;;18.49;100.00;99223.56;15279476;19;20021;-54
2023/09/30 16:48:37;;;;;;;2.80;1.20;;;;;;;18.16;100.00;99229.47;15278831;19;20037;-53
2023/09/30 16:54:02;;;;;;;4.38;1.27;;;;;;;17.66;100.00;99245.56;15275965;19;20025;-56
2023/09/30 16:59:26;;;;;;;2.40;1.00;;;;;;;17.34;100.00;99242.13;15274802;19;20494;-56
2023/09/30 17:04:55;;;;;;;4.05;1.35;;;;;;;17.10;100.00;99241.34;15277452;19;20018;-55
2023/09/30 17:10:21;;;;;;;2.95;1.23;;;;;;;16.90;100.00;99247.22;15279776;19;20025;-53
2023/09/30 17:15:49;;;;;;;4.45;1.30;;;;;;;16.75;100.00;99257.22;15275837;19;20018;-56
2023/09/30 17:21:17;;;;;;;1.80;1.10;;;;;;;16.54;100.00;99258.69;15280259;19;20098;-56
2023/09/30 17:26:41;;;;;;;2.95;1.25;;;;;;;16.32;100.00;99261.19;15275265;19;20023;-52
2023/09/30 17:32:06;;;;;;;3.35;1.30;;;;;;;16.09;100.00;99272.03;15274047;19;20037;-54
2023/09/30 17:37:40;;;;;;;2.45;1.20;;;;;;;15.92;100.00;99264.94;15273440;19;20070;-55
2023/09/30 17:43:06;;;;;;;2.35;1.13;;;;;;;15.76;100.00;99263.94;15267557;19;20829;-55
2023/09/30 17:48:30;;;;;;;6.00;1.33;;;;;;;15.60;100.00;99270.25;15266981;19;20018;-53
2023/09/30 17:53:57;;;;;;;6.38;1.35;;;;;;;15.39;100.00;99282.53;15274456;19;20383;-58
2023/09/30 17:59:23;;;;;;;5.20;1.45;;;;;;;15.21;100.00;99284.59;15271532;19;20042;-56
2023/09/30 18:04:47;;;;;;;2.60;1.20;;;;;;;15.05;100.00;99286.28;15274497;19;20035;-56
2023/09/30 18:10:19;;;;;;;3.00;1.20;;;;;;;14.90;100.00;99285.22;15276324;19;20015;-55
2023/09/30 18:15:45;;;;;;;3.10;1.40;;;;;;;14.73;100.00;99278.94;15270411;19;20370;-56
2023/09/30 18:21:11;;;;;;;2.97;1.20;;;;;;;14.50;100.00;99284.97;15270364;19;20022;-54
2023/09/30 18:26:39;;;;;;;2.45;1.20;;;;;;;14.31;100.00;99273.41;15268532;19;20030;-57
2023/09/30 18:32:04;;;;;;;2.00;1.20;;;;;;;14.20;100.00;99278.25;15269842;19;20025;-55
2023/09/30 18:37:30;;;;;;;2.45;1.17;;;;;;;14.11;100.00;99288.25;15257639;19;20021;-53
2023/09/30 18:42:58;;;;;;;3.88;1.30;;;;;;;14.00;100.00;99282.06;15266598;19;20034;-57
2023/09/30 18:48:24;;;;;;;3.30;1.20;;;;;;;13.87;100.00;99287.09;15268767;19;20014;-55
2023/09/30 18:53:49;;;;;;;2.20;1.30;;;;;;;13.74;100.00;99290.25;15266749;19;20530;-57
2023/09/30 18:59:20;;;;;;;3.53;1.33;;;;;;;13.62;100.00;99289.66;15266179;19;20026;-54
2023/09/30 19:04:45;;;;;;;4.22;1.25;;;;;;;13.50;100.00;99290.94;15271414;19;20015;-54
2023/09/30 19:10:10;;;;;;;2.53;1.35;;;;;;;13.40;100.00;99296.44;15275170;19;20026;-55
2023/09/30 19:15:38;;;;;;;3.03;1.40;;;;;;;13.29;100.00;99291.25;15284218;19;20029;-55
2023/09/30 19:21:04;;;;;;;3.63;1.40;;;;;;;13.19;100.00;99288.63;15282148;19;20018;-57
2023/09/30 19:26:30;;;;;;;3.95;1.58;;;;;;;13.08;100.00;99282.47;15268176;19;20018;-53
2023/09/30 19:31:57;;;;;;;3.58;1.40;;;;;;;13.01;100.00;99280.53;15278183;19;20025;-51
2023/09/30 19:37:22;;;;;;;5.63;1.30;;;;;;;12.95;100.00;99271.19;15276472;19;20010;-51
2023/09/30 19:42:46;;;;;;;4.18;1.50;;;;;;;12.95;100.00;99276.59;15281144;19;20820;-51
2023/09/30 19:48:15;;;;;;;4.68;1.50;;;;;;;12.93;100.00;99276.78;15273138;19;20019;-52
2023/09/30 19:53:40;;;;;;;5.13;1.60;;;;;;;12.91;100.00;99278.78;15275917;19;20515;-54
2023/09/30 19:59:07;;;;;;;4.13;1.52;;;;;;;12.89;100.00;99277.25;15271471;19;20039;-52
2023/09/30 20:04:37;;;;;;;3.67;1.50;;;;;;;12.78;100.00;99275.59;15277352;19;20033;-51
2023/09/30 20:10:03;;;;;;;3.58;1.80;;;;;;;12.70;100.00;99289.88;15282599;19;20252;-50
2023/09/30 20:15:28;;;;;;;3.85;1.65;;;;;;;12.67;100.00;99289.34;15275592;19;20489;-53
2023/09/30 20:20:56;;;;;;;2.75;1.55;;;;;;;12.61;100.00;99286.28;15275517;19;20014;-49
2023/09/30 20:26:23;;;;;;;2.92;1.50;;;;;;;12.45;100.00;99288.78;15272880;19;20017;-52
2023/09/30 20:31:48;;;;;;;3.60;1.70;;;;;;;12.37;100.00;99289.53;15273301;19;20064;-53
2023/09/30 20:37:15;;;;;;;3.90;2.10;;;;;;;12.26;100.00;99292.47;15275734;19;20019;-52
2023/09/30 20:42:40;;;;;;;4.22;2.00;;;;;;;12.19;100.00;99308.41;15286829;19;20028;-50
2023/09/30 20:48:07;;;;;;;4.93;2.03;;;;;;;12.09;100.00;99311.19;15283787;19;20032;-51
2023/09/30 20:53:36;;;;;;;6.32;2.20;;;;;;;12.02;100.00;99302.81;15288395;19;20028;-53
2023/09/30 20:59:00;;;;;;;5.72;2.50;;;;;;;11.95;100.00;99301.66;15288224;19;20530;-52
2023/09/30 21:04:25;;;;;;;3.67;2.30;;;;;;;11.89;100.00;99302.28;15285018;19;20541;-48
2023/09/30 21:09:52;;;;;;;6.13;2.30;;;;;;;11.82;100.00;99295.75;15282267;19;20739;-51
2023/09/30 21:15:18;;;;;;;4.70;2.40;;;;;;;11.77;100.00;99300.75;15287186;19;20953;-51
2023/09/30 21:20:42;;;;;;;4.53;2.30;;;;;;;11.74;100.00;99304.59;15286272;19;20020;-51
2023/09/30 21:26:10;;;;;;;5.00;2.20;;;;;;;11.71;100.00;99307.59;15279390;19;20014;-54
2023/09/30 21:31:34;;;;;;;3.42;1.95;;;;;;;11.68;100.00;99308.75;15284290;19;20403;-54
2023/09/30 21:37:06;;;;;;;4.90;2.22;;;;;;;11.67;100.00;99316.97;15272075;19;20022;-53
2023/09/30 21:42:33;;;;;;;4.70;1.93;;;;;;;11.63;100.00;99308.31;15286349;19;20017;-56
2023/09/30 21:47:58;;;;;;;4.03;1.83;;;;;;;11.62;100.00;99306.63;15283322;19;20291;-52
2023/09/30 21:53:22;;;;;;;6.00;2.08;;;;;;;11.63;100.00;99307.47;15282194;19;20070;-55
2023/09/30 21:58:51;;;;;;;4.60;2.00;;;;;;;11.66;100.00;99310.72;15288011;19;20034;-56
2023/09/30 22:04:16;;;;;;;4.70;1.80;;;;;;;11.66;100.00;99305.34;15281849;19;20377;-52
2023/09/30 22:09:42;;;;;;;5.07;1.75;;;;;;;11.66;100.00;99299.94;15280762;19;20493;-54
2023/09/30 22:15:10;;;;;;;4.18;1.70;;;;;;;11.69;100.00;99298.78;15284960;19;20090;-55
2023/09/30 22:20:36;;;;;;;4.00;1.92;;;;;;;11.70;100.00;99303.19;15285143;19;20011;-55
2023/09/30 22:26:02;;;;;;;4.68;2.00;;;;;;;11.72;100.00;99303.91;15280179;19;20022;-53
2023/09/30 22:31:31;;;;;;;3.92;1.60;;;;;;;11.71;100.00;99304.88;15285072;19;20015;-55
2023/09/30 22:36:56;;;;;;;4.00;1.40;;;;;;;11.71;100.00;99310.28;15281281;19;20696;-56
2023/09/30 22:42:23;;;;;;;4.68;1.80;;;;;;;11.69;100.00;99313.16;15282674;19;20014;-54
2023/09/30 22:47:52;;;;;;;3.58;1.63;;;;;;;11.68;100.00;99310.56;15287757;19;20011;-55
2023/09/30 22:53:17;;;;;;;3.65;1.60;;;;;;;11.63;100.00;99310.19;15296936;19;20021;-55
2023/09/30 22:58:43;;;;;;;3.47;1.70;;;;;;;11.61;100.00;99315.72;15300036;19;20028;-54
2023/09/30 23:04:11;;;;;;;3.22;1.80;;;;;;;11.58;100.00;99316.03;15295746;19;20018;-52
2023/09/30 23:09:37;;;;;;;4.07;1.90;;;;;;;11.56;100.00;99320.72;15290250;19;20014;-52
2023/09/30 23:15:03;;;;;;;4.68;1.95;;;;;;;11.51;100.00;99309.47;15288662;19;20078;-55
2023/09/30 23:20:30;;;;;;;6.95;1.80;;;;;;;11.51;100.00;99321.16;15298611;19;20015;-56
2023/09/30 23:25:55;;;;;;;3.58;1.70;;;;;;;11.47;100.00;99314.31;15293947;19;20014;-52
2023/09/30 23:31:23;;;;;;;3.10;1.85;;;;;;;11.48;100.00;99312.47;15297949;19;20020;-55
2023/09/30 23:36:59;;;;;;;3.67;1.77;;;;;;;11.44;100.00;99313.78;15291582;19;20022;-52
2023/09/30 23:42:23;;;;;;;3.40;1.85;;;;;;;11.42;100.00;99322.00;15295979;19;20388;-52
2023/09/30 23:47:49;;;;;;;3.13;1.58;;;;;;;11.40;100.00;99305.97;15286317;19;20056;-53
2023/09/30 23:53:17;;;;;;;4.10;1.60;;;;;;;11.45;100.00;99310.09;15295230;19;20014;-54
2023/09/30 23:58:42;;;;;;;3.53;1.60;;;;;;;11.44;100.00;99302.97;15293880;19;20018;-55
